Time;durP1;ratioP1;P1;durP2;ratioP2;P2;SDS_P1;SDS_P2;PMS_P1;PMS_P2;Temp;Humidity;BMP_temperature;BMP_pressure;BME280_temperature;BME280_humidity;BME280_pressure;Samples;Min_cycle;Max_cycle;Signal;HPM_P1;HPM_P2
2022/05/25 00:00:47;;;;;;;4.75;2.40;;;;;;;4.16;66.42;98838.41;5073195;28;20051;-63
2022/05/25 00:03:14;;;;;;;2.28;2.03;;;;;;;4.22;66.05;98831.50;5073211;28;20082;-64
2022/05/25 00:05:40;;;;;;;3.47;2.30;;;;;;;4.20;66.45;98829.09;5054786;28;20546;-62
2022/05/25 00:08:09;;;;;;;9.50;2.88;;;;;;;4.21;67.03;98835.16;5073212;28;20033;-63
2022/05/25 00:10:36;;;;;;;5.35;2.45;;;;;;;4.16;66.61;98841.03;5073384;28;20075;-63
2022/05/25 00:13:02;;;;;;;4.90;2.25;;;;;;;4.14;66.64;98847.50;5073089;28;20074;-63
2022/05/25 00:15:28;;;;;;;3.08;2.40;;;;;;;4.07;66.85;98834.41;5073426;28;20048;-63
2022/05/25 00:17:54;;;;;;;5.65;2.50;;;;;;;3.96;67.21;98840.31;5072868;28;20573;-62
2022/05/25 00:20:21;;;;;;;3.42;2.20;;;;;;;3.89;67.73;98842.97;5055141;28;20044;-63
2022/05/25 00:22:52;;;;;;;4.68;2.40;;;;;;;3.73;67.88;98849.44;5073006;28;20032;-63
2022/05/25 00:25:30;;;;;;;4.40;2.40;;;;;;;3.66;68.31;98846.03;5073332;28;20040;-63
2022/05/25 00:27:57;;;;;;;4.82;2.33;;;;;;;3.61;68.69;98851.88;5055369;28;20050;-63
2022/05/25 00:30:25;;;;;;;3.90;2.00;;;;;;;3.56;68.87;98846.47;5073050;28;20056;-62
2022/05/25 00:32:51;;;;;;;3.47;2.00;;;;;;;3.55;69.16;98855.34;5038653;28;20135;-63
2022/05/25 00:35:19;;;;;;;3.25;2.05;;;;;;;3.52;69.08;98854.94;5055044;28;20051;-62
2022/05/25 00:37:46;;;;;;;2.63;2.08;;;;;;;3.46;69.00;98850.53;5038503;28;20036;-63
2022/05/25 00:40:15;;;;;;;6.05;2.10;;;;;;;3.47;69.24;98854.75;5073135;28;20512;-63
2022/05/25 00:42:40;;;;;;;2.65;2.17;;;;;;;3.39;69.66;98853.16;5055070;28;20155;-64
2022/05/25 00:45:07;;;;;;;3.47;2.60;;;;;;;3.36;69.72;98864.03;5054797;28;20545;-62
2022/05/25 00:47:33;;;;;;;3.38;2.17;;;;;;;3.33;70.00;98859.22;5072510;28;20040;-63
2022/05/25 00:49:59;;;;;;;3.30;2.25;;;;;;;3.27;70.75;98860.84;5054749;28;20123;-63
2022/05/25 00:52:26;;;;;;;2.72;2.05;;;;;;;3.29;70.47;98853.56;5072568;28;20044;-63
2022/05/25 00:54:55;;;;;;;4.63;2.67;;;;;;;3.26;70.69;98856.56;5054812;28;20093;-62
2022/05/25 00:57:29;;;;;;;3.25;2.30;;;;;;;3.21;71.01;98851.16;5054722;28;20037;-63
2022/05/25 01:00:05;;;;;;;3.50;1.92;;;;;;;3.24;70.76;98863.06;5072745;28;20118;-63
2022/05/25 01:02:33;;;;;;;3.88;2.00;;;;;;;3.22;70.67;98862.44;5054288;28;20052;-63
2022/05/25 01:04:59;;;;;;;3.75;1.95;;;;;;;3.31;70.66;98863.84;5072637;28;20040;-63
2022/05/25 01:07:55;;;;;;;2.42;1.80;;;;;;;3.40;70.64;98868.66;5054395;28;20048;-63
2022/05/25 01:10:43;;;;;;;2.13;1.75;;;;;;;3.51;69.72;98863.81;5071417;28;20099;-62
2022/05/25 01:13:24;;;;;;;7.38;2.30;;;;;;;3.67;69.06;98866.00;5053705;28;20587;-62
2022/05/25 01:16:16;;;;;;;;;;;;;;;3.88;68.38;98862.31;5072294;28;20040;-63
2022/05/25 01:19:21;;;;;;;5.25;2.03;;;;;;;4.14;67.51;98869.28;5046217;28;20475;-64
2022/05/25 01:21:49;;;;;;;5.30;1.75;;;;;;;4.45;66.40;98865.13;5053550;28;20040;-64
2022/05/25 01:24:35;;;;;;;7.70;2.03;;;;;;;4.71;65.30;98872.03;5072088;28;20044;-62
2022/05/25 01:27:00;;;;;;;3.78;2.00;;;;;;;4.97;65.15;98873.66;5071875;28;20098;-63
2022/05/25 01:30:17;;;;;;;2.65;2.03;;;;;;;5.24;64.57;98876.91;5072074;28;20510;-63
2022/05/25 01:32:56;;;;;;;3.50;1.90;;;;;;;5.58;62.95;98882.66;5048763;28;20511;-63
2022/05/25 01:35:43;;;;;;;4.28;1.90;;;;;;;5.94;61.24;98886.34;5072246;28;20086;-63
2022/05/25 01:38:37;;;;;;;2.30;1.90;;;;;;;6.33;59.53;98879.84;5053675;28;20505;-64
2022/05/25 01:41:18;;;;;;;1.95;1.60;;;;;;;6.64;58.03;98888.53;5071457;28;20044;-62
2022/05/25 01:43:53;;;;;;;2.67;1.85;;;;;;;7.02;57.47;98888.97;5071700;28;20045;-62
2022/05/25 01:46:24;;;;;;;2.15;1.60;;;;;;;7.48;55.80;98889.28;5071953;28;20219;-63
2022/05/25 01:48:52;;;;;;;3.40;1.88;;;;;;;7.86;54.56;98893.28;5053572;28;20050;-62
2022/05/25 01:51:33;;;;;;;5.65;2.40;;;;;;;8.32;53.29;98894.19;5053626;28;20131;-63
2022/05/25 01:54:02;;;;;;;5.40;2.20;;;;;;;8.87;51.85;98893.66;5071590;28;20088;-66
2022/05/25 01:56:30;;;;;;;5.90;2.20;;;;;;;9.21;50.51;98891.84;5053560;28;20086;-64
2022/05/25 01:59:04;;;;;;;4.30;1.95;;;;;;;9.45;50.30;98889.03;5036805;28;20041;-63
2022/05/25 02:01:35;;;;;;;2.40;1.98;;;;;;;9.81;48.65;98895.63;5054466;28;20037;-63
2022/05/25 02:04:19;;;;;;;3.03;2.05;;;;;;;10.06;48.14;98897.00;5053555;28;20136;-63
2022/05/25 02:07:17;;;;;;;5.30;2.50;;;;;;;10.07;47.27;98894.13;5053690;28;20044;-63
2022/05/25 02:10:07;;;;;;;2.85;2.00;;;;;;;9.68;48.41;98898.66;5033229;28;20060;-62
2022/05/25 02:12:42;;;;;;;3.78;2.20;;;;;;;8.89;50.63;98904.81;5053427;28;20576;-64
2022/05/25 02:15:43;;;;;;;4.05;2.00;;;;;;;8.13;52.18;98901.50;5053241;28;20418;-63
2022/05/25 02:18:21;;;;;;;3.90;1.95;;;;;;;7.62;53.82;98909.13;5027768;28;20063;-65
2022/05/25 02:21:20;;;;;;;6.50;2.05;;;;;;;7.20;54.88;98914.44;5033979;28;20131;-63
2022/05/25 02:24:00;;;;;;;5.20;2.83;;;;;;;7.14;55.51;98912.72;5055637;28;20044;-63
2022/05/25 02:26:37;;;;;;;6.80;2.22;;;;;;;7.73;54.41;98908.31;5053315;28;20158;-63
2022/05/25 02:29:08;;;;;;;3.72;2.50;;;;;;;8.41;52.60;98906.84;5035368;28;20490;-63
2022/05/25 02:31:39;;;;;;;5.35;2.75;;;;;;;9.16;50.52;98914.78;5053173;28;20109;-63
2022/05/25 02:34:06;;;;;;;7.05;2.42;;;;;;;9.91;48.96;98916.97;5070662;28;20055;-64
2022/05/25 02:36:34;;;;;;;3.20;2.40;;;;;;;10.49;47.23;98911.34;5053133;28;20075;-63
2022/05/25 02:39:04;;;;;;;5.38;2.20;;;;;;;11.01;45.22;98910.81;5036325;28;20123;-63
2022/05/25 02:41:33;;;;;;;8.77;2.37;;;;;;;11.35;44.89;98911.34;5052924;28;20040;-63
2022/05/25 02:44:00;;;;;;;4.25;2.15;;;;;;;11.57;44.48;98904.06;5070977;28;20052;-63
2022/05/25 02:46:25;;;;;;;3.00;2.20;;;;;;;11.68;44.00;98898.84;5071269;28;20181;-63
2022/05/25 02:48:51;;;;;;;4.63;2.13;;;;;;;11.79;43.20;98897.84;5071360;28;20541;-63
2022/05/25 02:51:17;;;;;;;3.63;1.85;;;;;;;11.89;43.07;98897.94;5053531;28;20509;-63
2022/05/25 02:53:44;;;;;;;3.92;2.30;;;;;;;12.46;42.39;98907.72;5074678;28;20128;-63
2022/05/25 02:56:10;;;;;;;3.13;2.10;;;;;;;12.84;41.80;98899.56;5057036;28;20036;-62
2022/05/25 02:58:35;;;;;;;4.40;2.00;;;;;;;12.98;40.80;98906.00;5074635;28;20048;-64
2022/05/25 03:01:01;;;;;;;3.22;1.95;;;;;;;13.19;40.63;98906.78;5056945;28;20048;-63
2022/05/25 03:03:28;;;;;;;2.70;1.95;;;;;;;13.46;39.85;98903.09;5074315;28;20048;-63
2022/05/25 03:05:54;;;;;;;6.43;2.00;;;;;;;13.71;39.27;98907.59;5074556;28;20056;-63
2022/05/25 03:08:20;;;;;;;3.20;2.42;;;;;;;13.91;39.07;98910.19;5056266;28;20493;-64
2022/05/25 03:10:46;;;;;;;5.78;2.22;;;;;;;14.09;38.64;98906.16;5074293;28;20047;-65
2022/05/25 03:13:11;;;;;;;3.97;2.30;;;;;;;14.21;38.46;98911.19;5074531;28;20068;-63
2022/05/25 03:15:37;;;;;;;5.60;2.25;;;;;;;14.18;38.80;98907.19;5074589;28;20044;-64
2022/05/25 03:18:03;;;;;;;3.55;2.20;;;;;;;14.16;38.17;98904.00;5074189;28;20041;-64
2022/05/25 03:20:29;;;;;;;5.10;2.58;;;;;;;14.03;38.56;98905.38;5074266;28;20036;-64
2022/05/25 03:22:55;;;;;;;2.75;1.98;;;;;;;14.18;38.33;98909.84;5074038;28;20043;-64
2022/05/25 03:25:21;;;;;;;3.72;1.83;;;;;;;14.12;38.28;98913.63;5074610;28;20071;-65
2022/05/25 03:27:47;;;;;;;3.45;1.80;;;;;;;14.15;38.32;98910.41;5073962;28;20479;-64
2022/05/25 03:30:15;;;;;;;1.83;1.60;;;;;;;14.43;38.03;98913.47;5056137;28;20059;-63
2022/05/25 03:32:41;;;;;;;8.27;1.70;;;;;;;14.67;37.57;98909.09;5055973;28;20036;-64
2022/05/25 03:35:11;;;;;;;3.90;1.85;;;;;;;14.48;37.91;98916.91;5074392;28;20075;-62
2022/05/25 03:37:37;;;;;;;3.20;1.47;;;;;;;14.58;37.98;98918.75;5073884;28;20040;-63
2022/05/25 03:40:04;;;;;;;4.85;1.83;;;;;;;14.97;37.14;98923.31;5073465;28;20139;-62
2022/05/25 03:42:30;;;;;;;3.05;1.83;;;;;;;14.72;37.05;98926.97;5054767;28;20032;-63
2022/05/25 03:44:56;;;;;;;3.53;1.30;;;;;;;14.21;37.80;98914.66;5073887;28;20349;-63
2022/05/25 03:47:21;;;;;;;2.50;1.75;;;;;;;14.31;38.02;98925.25;5073290;28;20038;-63
2022/05/25 03:49:47;;;;;;;3.80;1.65;;;;;;;14.17;37.72;98921.56;5055605;28;20052;-64
2022/05/25 03:52:13;;;;;;;2.70;1.40;;;;;;;14.18;37.32;98917.84;5055429;28;20048;-63
2022/05/25 03:54:38;;;;;;;2.45;1.60;;;;;;;14.20;37.92;98929.03;5073137;28;20047;-63
2022/05/25 03:57:05;;;;;;;2.70;1.58;;;;;;;13.94;37.75;98925.66;5073618;28;20037;-63
2022/05/25 03:59:30;;;;;;;1.83;1.58;;;;;;;13.75;38.18;98925.41;5055432;28;20064;-63
2022/05/25 04:01:57;;;;;;;1.42;1.30;;;;;;;13.73;38.31;98921.41;5038973;28;20506;-63
2022/05/25 04:04:22;;;;;;;1.50;1.40;;;;;;;13.38;38.90;98917.72;5073030;28;20064;-63
2022/05/25 04:06:48;;;;;;;1.83;1.50;;;;;;;13.84;38.06;98929.13;5055340;28;20063;-63
2022/05/25 04:09:14;;;;;;;2.30;1.60;;;;;;;13.91;37.37;98925.38;5072543;28;20052;-62
2022/05/25 04:11:42;;;;;;;2.97;1.60;;;;;;;13.59;37.78;98927.31;5072969;28;20486;-64
2022/05/25 04:14:08;;;;;;;1.40;1.20;;;;;;;13.28;38.04;98931.06;5073117;28;20465;-62
2022/05/25 04:16:34;;;;;;;1.52;1.35;;;;;;;12.94;39.33;98928.84;5055053;28;20041;-64
2022/05/25 04:19:00;;;;;;;1.70;1.55;;;;;;;12.92;39.12;98929.13;5073090;28;20080;-62
2022/05/25 04:21:26;;;;;;;1.38;1.23;;;;;;;13.00;38.98;98935.78;5037409;28;20079;-64
2022/05/25 04:23:52;;;;;;;2.30;1.40;;;;;;;13.23;38.38;98928.34;5072792;28;20051;-63
2022/05/25 04:26:18;;;;;;;4.53;1.40;;;;;;;13.29;38.54;98930.75;5072776;28;20044;-63
2022/05/25 04:28:44;;;;;;;1.50;1.30;;;;;;;13.44;37.01;98926.50;5072580;28;20046;-64
2022/05/25 04:31:10;;;;;;;1.77;1.50;;;;;;;13.21;37.34;98931.28;5054765;28;20048;-64
2022/05/25 04:33:36;;;;;;;2.67;1.50;;;;;;;13.30;37.56;98939.56;5038111;28;20048;-66
2022/05/25 04:36:03;;;;;;;2.35;1.85;;;;;;;13.17;37.82;98938.19;5072668;28;20028;-64
2022/05/25 04:38:29;;;;;;;2.15;1.33;;;;;;;12.96;37.61;98932.84;5054749;28;20074;-64
2022/05/25 04:40:55;;;;;;;2.38;1.33;;;;;;;13.27;37.05;98938.25;5072152;28;20078;-63
2022/05/25 04:43:22;;;;;;;1.95;1.67;;;;;;;13.35;35.84;98947.53;5072644;28;20036;-64
2022/05/25 04:45:50;;;;;;;2.08;1.45;;;;;;;13.27;34.47;98940.91;5072223;28;20147;-63
2022/05/25 04:48:20;;;;;;;2.28;1.80;;;;;;;13.50;34.54;98950.22;5054770;28;20136;-64
2022/05/25 04:50:46;;;;;;;;;;;;;;;13.13;34.45;98950.44;5072680;28;20170;-64
2022/05/25 04:53:14;;;;;;;1.63;1.52;;;;;;;12.98;35.18;98945.09;5072313;28;20007;-64
2022/05/25 04:58:24;;;;;;;2.00;1.70;;;;;;;12.94;35.29;98950.13;5071999;28;20051;-66
2022/05/25 05:00:50;;;;;;;3.25;1.60;;;;;;;12.72;35.13;98956.47;5054404;28;20044;-65
2022/05/25 05:03:17;;;;;;;1.90;1.60;;;;;;;12.90;34.33;98954.38;5072471;28;20470;-64
2022/05/25 05:05:43;;;;;;;1.83;1.55;;;;;;;13.03;34.04;98955.72;5070957;28;20501;-67
2022/05/25 05:08:09;;;;;;;1.85;1.50;;;;;;;13.02;34.04;98962.13;5072051;28;20040;-66
2022/05/25 05:10:35;;;;;;;2.15;1.75;;;;;;;13.15;34.02;98950.97;5071839;28;20551;-65
2022/05/25 05:13:04;;;;;;;1.70;1.60;;;;;;;13.04;33.58;98950.16;5072145;28;20041;-66
2022/05/25 05:15:42;;;;;;;1.80;1.67;;;;;;;13.49;33.59;98948.59;5067770;28;20529;-64
2022/05/25 05:18:08;;;;;;;3.33;1.77;;;;;;;14.02;32.98;98942.94;5070607;28;20052;-65
2022/05/25 05:21:01;;;;;;;2.15;1.80;;;;;;;14.12;32.23;98940.25;5049914;28;20485;-67
2022/05/25 05:23:27;;;;;;;2.00;1.65;;;;;;;14.31;32.06;98946.59;5069745;28;20479;-63
2022/05/25 05:25:53;;;;;;;1.70;1.60;;;;;;;14.49;31.86;98941.72;5052260;28;20127;-64
2022/05/25 05:28:21;;;;;;;2.88;1.67;;;;;;;14.31;31.87;98943.13;5071056;28;20071;-64
2022/05/25 05:30:57;;;;;;;5.32;2.17;;;;;;;13.97;32.53;98950.94;5071450;28;20048;-64
2022/05/25 05:33:25;;;;;;;2.25;1.67;;;;;;;13.57;32.90;98942.75;5036295;28;20144;-63
2022/05/25 05:35:56;;;;;;;2.85;1.80;;;;;;;13.22;33.29;98948.84;5032950;28;20502;-65
2022/05/25 05:38:22;;;;;;;2.65;2.42;;;;;;;12.93;33.92;98944.00;5064976;28;20036;-64
2022/05/25 05:40:48;;;;;;;3.35;2.72;;;;;;;12.78;34.09;98948.50;5070249;28;20062;-64
2022/05/25 05:43:14;;;;;;;3.28;2.00;;;;;;;12.42;34.56;98945.75;5051640;28;20117;-63
2022/05/25 05:45:42;;;;;;;4.13;2.53;;;;;;;12.50;34.99;98932.75;5052752;28;20106;-62
2022/05/25 05:48:10;;;;;;;4.15;2.05;;;;;;;12.39;35.06;98944.41;5052632;28;20436;-63
2022/05/25 05:50:38;;;;;;;2.25;1.70;;;;;;;12.10;35.19;98944.00;5068853;28;20047;-62
2022/05/25 05:53:05;;;;;;;1.95;1.75;;;;;;;12.10;34.96;98940.53;5052529;28;20069;-63
2022/05/25 05:55:32;;;;;;;2.85;1.90;;;;;;;11.91;35.71;98938.31;5070749;28;20123;-63
2022/05/25 05:57:57;;;;;;;2.60;1.90;;;;;;;12.05;35.14;98933.34;5051970;28;20060;-63
2022/05/25 06:00:23;;;;;;;6.50;1.60;;;;;;;12.09;35.60;98930.94;5069640;28;20098;-64
2022/05/25 06:02:50;;;;;;;1.80;1.55;;;;;;;11.94;35.70;98931.66;5070520;28;20037;-62
2022/05/25 06:05:16;;;;;;;2.63;1.60;;;;;;;11.80;36.49;98924.16;5071045;28;20074;-63
2022/05/25 06:07:42;;;;;;;4.60;1.65;;;;;;;11.85;36.76;98930.53;5069956;28;20429;-62
2022/05/25 06:10:09;;;;;;;2.60;1.75;;;;;;;11.88;37.50;98930.84;5069838;28;20065;-61
2022/05/25 06:12:34;;;;;;;1.60;1.50;;;;;;;11.53;37.10;98934.84;5070119;28;20036;-63
2022/05/25 06:19:25;;;;;;;1.55;1.45;;;;;;;11.39;36.84;98922.28;5070533;28;20055;-64
2022/05/25 06:20:31;;;;;;;1.73;1.30;;;;;;;11.44;37.23;98933.72;5070762;28;20048;-65
2022/05/25 06:22:56;;;;;;;2.08;1.63;;;;;;;11.53;36.26;98929.53;5070176;28;20052;-66
2022/05/25 06:25:22;;;;;;;1.80;1.50;;;;;;;11.77;36.39;98921.22;5068970;28;20060;-64
2022/05/25 06:27:48;;;;;;;1.85;1.55;;;;;;;11.86;37.10;98927.66;5038342;28;20114;-63
2022/05/25 06:30:14;;;;;;;1.65;1.50;;;;;;;12.11;36.46;98924.31;5073743;28;20410;-66
2022/05/25 06:32:39;;;;;;;1.98;1.48;;;;;;;12.45;36.16;98926.59;5072814;28;20074;-63
2022/05/25 06:35:05;;;;;;;2.25;1.52;;;;;;;12.77;36.19;98922.97;5073030;28;20044;-63
2022/05/25 06:37:32;;;;;;;4.25;1.48;;;;;;;12.61;35.48;98932.75;5054938;28;20174;-66
2022/05/25 06:39:57;;;;;;;3.20;1.98;;;;;;;12.60;35.79;98933.84;5073381;28;20494;-64
2022/05/25 06:42:23;;;;;;;7.68;2.28;;;;;;;12.17;36.68;98922.50;5074125;28;20037;-63
2022/05/25 06:44:53;;;;;;;4.18;1.60;;;;;;;12.14;36.97;98938.94;5035935;28;20494;-64
2022/05/25 06:47:19;;;;;;;3.08;1.75;;;;;;;12.02;37.21;98931.97;5058056;28;20062;-64
2022/05/25 06:49:44;;;;;;;4.65;2.08;;;;;;;11.82;37.11;98937.97;5074181;28;20041;-64
2022/05/25 06:52:12;;;;;;;2.28;1.58;;;;;;;11.90;36.51;98941.22;5074340;28;20047;-64
2022/05/25 06:54:38;;;;;;;1.88;1.55;;;;;;;11.94;36.77;98942.28;5055977;28;20044;-62
2022/05/25 06:57:04;;;;;;;3.00;1.60;;;;;;;12.00;36.47;98934.13;5073240;28;20531;-62
2022/05/25 06:59:30;;;;;;;1.38;1.27;;;;;;;11.76;37.51;98941.63;5072368;28;20635;-64
2022/05/25 07:01:56;;;;;;;3.42;1.67;;;;;;;11.72;37.47;98929.13;5072271;28;20048;-63
2022/05/25 07:04:22;;;;;;;2.70;1.30;;;;;;;11.64;37.35;98940.22;5055064;28;20634;-67
2022/05/25 07:06:47;;;;;;;2.22;1.60;;;;;;;11.68;37.10;98936.03;5054115;28;20366;-64
2022/05/25 07:09:13;;;;;;;1.50;1.40;;;;;;;11.88;36.91;98936.16;5040952;28;20105;-65
2022/05/25 07:11:41;;;;;;;2.92;1.67;;;;;;;12.02;36.23;98925.88;5031541;28;20038;-66
2022/05/25 07:14:06;;;;;;;1.70;1.50;;;;;;;12.46;36.04;98923.69;5030116;28;20041;-63
2022/05/25 07:16:32;;;;;;;3.33;1.70;;;;;;;13.10;34.83;98922.50;5014115;28;20048;-62
2022/05/25 07:18:58;;;;;;;1.50;1.40;;;;;;;13.40;34.09;98935.03;5014247;28;20052;-64
2022/05/25 07:21:26;;;;;;;5.18;1.70;;;;;;;13.05;34.67;98929.66;5030122;28;20592;-67
2022/05/25 07:23:54;;;;;;;2.25;1.52;;;;;;;12.95;35.01;98919.81;5014321;28;20045;-65
2022/05/25 07:26:21;;;;;;;2.35;1.58;;;;;;;12.89;35.01;98929.66;5014649;28;20043;-63
2022/05/25 07:28:47;;;;;;;4.25;1.73;;;;;;;12.91;34.89;98921.38;5032306;28;20049;-64
2022/05/25 07:31:21;;;;;;;2.60;2.00;;;;;;;13.04;35.20;98928.88;5032546;28;20467;-65
2022/05/25 07:33:53;;;;;;;1.90;1.60;;;;;;;13.13;34.72;98926.50;5032106;28;20132;-64
2022/05/25 07:36:19;;;;;;;14.95;7.20;;;;;;;12.99;35.69;98930.72;5031857;28;20451;-63
2022/05/25 07:38:49;;;;;;;4.78;2.40;;;;;;;13.01;35.41;98923.28;5033345;28;20156;-65
2022/05/25 07:41:15;;;;;;;3.88;2.30;;;;;;;12.76;35.49;98939.97;5033786;28;20099;-64
2022/05/25 07:43:41;;;;;;;2.30;1.95;;;;;;;12.50;35.68;98935.41;5032546;28;20081;-63
2022/05/25 07:46:07;;;;;;;1.90;1.80;;;;;;;12.41;35.43;98931.66;5033498;28;20525;-65
2022/05/25 07:48:33;;;;;;;1.90;1.50;;;;;;;12.40;34.40;98929.25;5034004;28;20046;-63
2022/05/25 07:50:59;;;;;;;2.03;1.48;;;;;;;12.64;34.15;98924.25;5033149;28;20071;-65
2022/05/25 07:56:10;;;;;;;2.22;1.75;;;;;;;13.52;33.30;98916.13;5033579;28;20045;-64
2022/05/25 07:58:36;;;;;;;11.50;2.53;;;;;;;14.00;33.26;98926.41;4982495;28;20052;-63
2022/05/25 08:01:08;;;;;;;3.67;3.13;;;;;;;14.23;32.44;98915.16;5014760;28;20037;-63
2022/05/25 08:06:18;;;;;;;5.47;2.17;;;;;;;13.60;33.56;98915.59;5031846;28;20064;-64
2022/05/25 08:08:45;;;;;;;5.85;2.40;;;;;;;13.38;34.95;98939.84;5041340;28;20091;-64
2022/05/25 08:11:13;;;;;;;3.70;1.85;;;;;;;12.99;35.29;98920.88;5053382;28;20156;-63
2022/05/25 08:13:42;;;;;;;4.03;2.22;;;;;;;12.91;35.18;98927.53;5052905;28;20052;-62
2022/05/25 08:16:09;;;;;;;3.27;2.20;;;;;;;12.70;35.26;98937.31;5053876;28;20036;-64
2022/05/25 08:18:34;;;;;;;2.15;1.75;;;;;;;12.68;35.28;98930.69;5070976;28;20166;-64
2022/05/25 08:21:00;;;;;;;2.60;2.10;;;;;;;12.80;35.18;98917.94;5070952;28;20227;-64
2022/05/25 08:23:26;;;;;;;2.40;2.03;;;;;;;12.98;35.72;98934.47;5053655;28;20044;-63
2022/05/25 08:25:52;;;;;;;3.13;1.50;;;;;;;13.02;33.92;98930.19;5054664;28;20094;-65
2022/05/25 08:28:18;;;;;;;3.22;1.75;;;;;;;13.04;34.91;98928.06;5072101;28;20045;-63
2022/05/25 08:30:45;;;;;;;3.13;2.33;;;;;;;13.35;33.57;98918.25;5071328;28;20044;-62
2022/05/25 08:33:12;;;;;;;2.42;1.70;;;;;;;13.46;32.60;98913.75;5072280;28;20067;-65
2022/05/25 08:35:37;;;;;;;3.53;1.92;;;;;;;13.61;32.70;98924.38;5052994;28;20464;-63
2022/05/25 08:38:03;;;;;;;2.03;1.58;;;;;;;13.90;32.55;98919.25;5053367;28;20044;-63
2022/05/25 08:40:31;;;;;;;2.75;1.67;;;;;;;14.24;31.78;98923.97;5071559;28;20093;-64
2022/05/25 08:42:59;;;;;;;2.00;1.70;;;;;;;14.44;31.22;98926.56;5070611;28;20059;-63
2022/05/25 08:45:38;;;;;;;4.80;1.60;;;;;;;14.54;31.85;98923.06;5053794;28;20086;-63
2022/05/25 08:48:06;;;;;;;1.70;1.50;;;;;;;14.48;31.36;98916.13;5036337;28;20076;-62
2022/05/25 08:50:32;;;;;;;3.05;1.98;;;;;;;14.20;31.78;98917.56;5070017;28;20075;-63
2022/05/25 08:52:59;;;;;;;4.53;1.80;;;;;;;13.76;32.73;98924.34;5052856;28;20036;-63
2022/05/25 08:55:59;;;;;;;2.13;1.52;;;;;;;13.51;32.39;98917.19;5071755;28;20044;-62
2022/05/25 08:58:49;;;;;;;1.55;1.45;;;;;;;13.51;32.26;98914.53;5037442;28;20045;-62
2022/05/25 09:01:25;;;;;;;3.92;1.80;;;;;;;14.00;31.77;98913.09;5071610;28;20043;-66
2022/05/25 09:04:12;;;;;;;1.88;1.67;;;;;;;14.22;31.62;98912.78;5051972;28;20056;-67
2022/05/25 09:07:15;;;;;;;1.67;1.40;;;;;;;14.48;30.45;98903.59;5053469;28;20029;-65
2022/05/25 09:09:47;;;;;;;2.78;1.70;;;;;;;14.76;30.60;98902.13;5027832;28;20053;-64
2022/05/25 09:12:24;;;;;;;2.85;1.67;;;;;;;14.95;30.04;98910.28;5051434;28;20045;-64
2022/05/25 09:15:04;;;;;;;3.25;1.50;;;;;;;15.11;29.95;98899.47;5033993;28;20048;-65
2022/05/25 09:17:43;;;;;;;2.40;1.17;;;;;;;15.04;29.97;98897.13;5033957;28;20132;-63
2022/05/25 09:20:13;;;;;;;2.70;2.00;;;;;;;14.71;30.66;98910.16;5049937;28;20068;-65
2022/05/25 09:22:41;;;;;;;;;;;;;;;14.37;32.20;98907.38;5068745;28;20041;-65
2022/05/25 09:25:09;;;;;;;1.58;1.45;;;;;;;14.15;32.05;98910.41;5054415;28;19924;-63
2022/05/25 09:27:40;;;;;;;2.30;1.30;;;;;;;13.89;31.42;98909.69;5070590;28;20041;-63
2022/05/25 09:30:29;;;;;;;1.88;1.50;;;;;;;13.59;31.94;98902.56;5053873;28;20052;-64
2022/05/25 09:33:00;;;;;;;2.10;1.33;;;;;;;13.64;31.77;98905.19;5051609;28;20037;-66
2022/05/25 09:35:30;;;;;;;1.40;1.30;;;;;;;14.04;31.35;98900.84;5052734;28;20074;-63
2022/05/25 09:38:02;;;;;;;3.97;1.90;;;;;;;14.35;31.55;98904.16;5052445;28;20070;-65
2022/05/25 09:40:36;;;;;;;4.63;1.88;;;;;;;14.75;31.13;98894.41;5052927;28;20045;-65
2022/05/25 09:43:04;;;;;;;1.85;1.50;;;;;;;14.99;30.91;98897.97;5053290;28;20113;-65
2022/05/25 09:45:40;;;;;;;4.22;2.10;;;;;;;14.89;30.43;98898.03;5070992;28;20469;-64
2022/05/25 09:48:24;;;;;;;4.72;1.92;;;;;;;15.17;30.20;98893.81;5071093;28;20468;-64
2022/05/25 09:50:54;;;;;;;2.70;1.92;;;;;;;15.32;29.82;98894.78;5070659;28;20416;-63
2022/05/25 09:53:22;;;;;;;2.13;1.70;;;;;;;15.33;29.73;98891.84;5070508;28;20561;-64
2022/05/25 09:56:06;;;;;;;2.25;1.58;;;;;;;14.94;29.97;98891.84;5053339;28;20409;-62
2022/05/25 09:58:43;;;;;;;2.35;1.80;;;;;;;15.14;29.60;98893.59;5052184;28;20041;-65
2022/05/25 10:01:31;;;;;;;2.42;1.88;;;;;;;15.10;30.20;98890.69;5051732;28;20036;-64
2022/05/25 10:03:59;;;;;;;3.53;1.55;;;;;;;14.99;30.14;98900.63;5052628;28;20048;-64
2022/05/25 10:06:30;;;;;;;3.13;1.70;;;;;;;14.81;30.91;98890.63;5070796;28;20044;-64
2022/05/25 10:09:21;;;;;;;2.97;1.90;;;;;;;14.67;31.36;98892.31;5052429;28;20103;-63
2022/05/25 10:11:54;;;;;;;2.75;1.90;;;;;;;14.60;30.81;98892.63;5052778;28;20537;-62
2022/05/25 10:14:40;;;;;;;4.05;2.00;;;;;;;14.73;30.64;98884.00;5070336;28;20440;-64
2022/05/25 10:17:09;;;;;;;4.25;2.10;;;;;;;14.87;31.05;98886.03;5070876;28;20045;-63
2022/05/25 10:19:51;;;;;;;2.42;1.75;;;;;;;15.17;30.25;98882.34;5071112;28;20044;-63
2022/05/25 10:22:42;;;;;;;3.08;1.95;;;;;;;14.92;31.19;98883.34;5071393;28;20045;-62
2022/05/25 10:25:40;;;;;;;2.30;1.80;;;;;;;15.19;30.75;98877.53;5034743;28;20036;-63
2022/05/25 10:28:37;;;;;;;3.67;1.77;;;;;;;15.46;29.23;98866.34;5052941;28;20449;-63
2022/05/25 10:37:01;;;;;;;4.82;1.85;;;;;;;15.69;29.05;98864.00;5052850;28;20086;-63
2022/05/25 10:39:30;;;;;;;5.50;1.88;;;;;;;15.55;29.49;98869.97;5035978;28;20147;-62
2022/05/25 10:42:15;;;;;;;5.55;3.00;;;;;;;15.33;29.96;98865.13;5070528;28;20112;-62
2022/05/25 10:44:53;;;;;;;4.82;2.50;;;;;;;15.44;29.80;98858.63;5069114;28;20041;-62
2022/05/25 10:47:57;;;;;;;4.60;2.00;;;;;;;15.29;30.08;98856.06;5051736;28;20041;-63
2022/05/25 10:50:22;;;;;;;2.67;2.05;;;;;;;15.14;30.22;98850.88;5061950;28;20523;-63
2022/05/25 10:53:02;;;;;;;4.57;1.88;;;;;;;15.15;30.18;98850.59;5068454;28;20561;-63
2022/05/25 10:55:33;;;;;;;4.43;2.20;;;;;;;15.26;29.87;98845.16;5035569;28;20397;-62
2022/05/25 10:58:25;;;;;;;2.30;1.52;;;;;;;14.96;30.13;98839.00;5049540;28;20041;-65
2022/05/25 11:01:28;;;;;;;2.63;2.15;;;;;;;14.89;30.70;98846.56;5054897;28;20074;-62
2022/05/25 11:04:28;;;;;;;3.88;1.75;;;;;;;14.71;30.72;98838.13;5062809;28;20432;-62
2022/05/25 11:07:18;;;;;;;2.50;2.10;;;;;;;14.48;31.68;98844.91;5069260;28;20052;-64
2022/05/25 11:10:14;;;;;;;3.33;1.80;;;;;;;14.43;30.76;98844.16;5067490;28;20092;-64
2022/05/25 11:12:49;;;;;;;3.45;1.70;;;;;;;14.37;31.24;98835.38;5070630;28;20434;-64
2022/05/25 11:15:18;;;;;;;2.65;1.90;;;;;;;14.34;30.81;98835.13;5073053;28;20194;-64
2022/05/25 11:18:22;;;;;;;3.03;1.95;;;;;;;14.21;31.49;98832.00;5071871;28;20119;-62
2022/05/25 11:20:59;;;;;;;2.47;1.80;;;;;;;14.16;31.46;98829.34;5073790;28;20056;-65
2022/05/25 11:23:52;;;;;;;3.15;1.65;;;;;;;14.39;30.90;98824.44;5056071;28;20490;-63
2022/05/25 11:26:24;;;;;;;2.13;1.85;;;;;;;14.19;31.59;98820.81;5072227;28;20045;-62
2022/05/25 11:29:08;;;;;;;3.00;2.03;;;;;;;14.08;31.48;98822.72;5071569;28;20127;-63
2022/05/25 11:31:40;;;;;;;3.17;1.85;;;;;;;14.06;31.26;98814.22;5035304;28;20132;-64
2022/05/25 11:34:24;;;;;;;4.43;2.03;;;;;;;14.19;30.25;98818.16;5035307;28;20046;-64
2022/05/25 11:36:54;;;;;;;4.07;2.17;;;;;;;14.31;30.35;98820.47;5051946;28;20105;-64
2022/05/25 11:39:38;;;;;;;3.63;2.20;;;;;;;14.46;29.78;98815.06;5072276;28;20051;-63
2022/05/25 11:42:30;;;;;;;4.85;3.55;;;;;;;14.58;29.60;98809.41;5038121;28;20059;-61
2022/05/25 11:45:13;;;;;;;4.78;1.95;;;;;;;14.70;30.04;98825.06;5053698;28;20056;-62
2022/05/25 11:47:48;;;;;;;5.28;2.17;;;;;;;14.88;29.90;98829.75;5055066;28;20140;-63
2022/05/25 11:50:27;;;;;;;4.82;2.50;;;;;;;14.90;30.61;98829.44;5054728;28;20390;-63
2022/05/25 11:53:18;;;;;;;2.90;2.08;;;;;;;14.72;31.47;98822.91;5073104;28;20049;-63
2022/05/25 11:56:05;;;;;;;2.40;1.88;;;;;;;14.50;30.14;98824.13;5048490;28;20056;-65
2022/05/25 11:58:55;;;;;;;3.85;1.95;;;;;;;14.62;30.20;98836.31;5054418;28;20051;-65
2022/05/25 12:01:31;;;;;;;2.55;2.00;;;;;;;14.71;30.41;98832.00;5072456;28;20044;-66
2022/05/25 12:04:16;;;;;;;2.83;1.90;;;;;;;14.94;29.65;98817.13;5017195;28;20532;-67
2022/05/25 12:07:05;;;;;;;2.90;2.15;;;;;;;15.24;29.61;98823.31;5034381;28;20045;-66
2022/05/25 12:09:40;;;;;;;7.00;1.95;;;;;;;15.25;27.80;98820.34;5033378;28;20057;-66
2022/05/25 12:12:30;;;;;;;4.13;2.00;;;;;;;15.19;28.31;98808.13;5041977;28;20067;-67
2022/05/25 12:15:27;;;;;;;2.20;1.83;;;;;;;15.31;28.19;98811.19;5054324;28;20041;-66
2022/05/25 12:18:30;;;;;;;2.78;2.13;;;;;;;15.51;28.43;98814.75;5053614;28;20044;-62